Time;durP1;ratioP1;P1;durP2;ratioP2;P2;SDS_P1;SDS_P2;PMS_P1;PMS_P2;Temp;Humidity;BMP_temperature;BMP_pressure;BME280_temperature;BME280_humidity;BME280_pressure;Samples;Min_cycle;Max_cycle;Signal;HPM_P1;HPM_P2
2021/07/16 00:01:44;;;;;;;19.52;5.00;;;16.50;99.90;;;;;;6243452;23;20024;-79
2021/07/16 00:04:10;;;;;;;20.73;5.18;;;16.50;99.90;;;;;;6245108;22;20066;-78
2021/07/16 00:06:36;;;;;;;26.50;5.38;;;16.50;99.90;;;;;;6243189;23;20091;-80
2021/07/16 00:09:03;;;;;;;25.35;5.57;;;16.50;99.90;;;;;;6255153;23;20502;-80
2021/07/16 00:11:29;;;;;;;25.05;5.22;;;16.50;99.90;;;;;;6217860;23;20020;-78
2021/07/16 00:13:56;;;;;;;24.73;5.72;;;16.50;99.90;;;;;;6241837;23;20016;-80
2021/07/16 00:16:21;;;;;;;26.35;4.88;;;16.50;99.90;;;;;;6245060;22;20063;-79
2021/07/16 00:18:47;;;;;;;25.23;5.28;;;16.50;99.90;;;;;;6242573;23;20412;-80
2021/07/16 00:21:14;;;;;;;28.88;5.65;;;16.50;99.90;;;;;;6243875;23;20022;-79
2021/07/16 00:23:40;;;;;;;31.08;5.05;;;16.50;99.90;;;;;;6254323;23;20012;-77
2021/07/16 00:26:05;;;;;;;30.52;5.55;;;16.40;99.90;;;;;;6253948;23;20012;-81
2021/07/16 00:28:31;;;;;;;27.35;5.22;;;16.40;99.90;;;;;;6243131;23;20008;-79
2021/07/16 00:30:57;;;;;;;24.17;5.30;;;16.50;99.90;;;;;;6245091;23;20078;-81
2021/07/16 00:33:23;;;;;;;25.50;4.35;;;16.40;99.90;;;;;;6253782;23;20020;-80
2021/07/16 00:35:49;;;;;;;27.95;4.95;;;16.40;99.90;;;;;;6254096;23;20380;-80
2021/07/16 00:38:15;;;;;;;28.95;4.70;;;16.40;99.90;;;;;;6245362;23;20046;-80
2021/07/16 00:40:41;;;;;;;28.50;4.97;;;16.40;99.90;;;;;;6243985;23;20023;-80
2021/07/16 00:43:07;;;;;;;28.38;5.10;;;16.40;99.90;;;;;;6245322;23;20337;-81
2021/07/16 00:45:33;;;;;;;27.15;5.32;;;16.40;99.90;;;;;;6258400;22;20134;-80
2021/07/16 00:48:00;;;;;;;29.15;5.82;;;16.40;99.90;;;;;;6255041;23;20395;-79
2021/07/16 00:50:32;;;;;;;28.77;5.07;;;16.40;99.90;;;;;;6244866;23;20012;-79
2021/07/16 00:52:58;;;;;;;26.20;5.22;;;16.40;99.90;;;;;;6257226;22;20023;-80
2021/07/16 00:55:24;;;;;;;30.08;4.93;;;16.40;99.90;;;;;;6255049;23;20016;-80
2021/07/16 00:57:51;;;;;;;33.22;5.43;;;16.40;99.90;;;;;;6255525;23;20058;-78
2021/07/16 01:00:17;;;;;;;25.85;4.80;;;16.40;99.90;;;;;;6257198;23;20031;-80
2021/07/16 01:02:44;;;;;;;34.22;5.20;;;16.30;99.90;;;;;;6242057;23;20028;-80
2021/07/16 01:05:13;;;;;;;32.65;4.97;;;16.30;99.90;;;;;;6243504;22;20100;-80
2021/07/16 01:07:39;;;;;;;25.17;4.63;;;16.30;99.90;;;;;;6252969;23;20008;-80
2021/07/16 01:10:07;;;;;;;32.75;5.43;;;16.40;99.90;;;;;;6243301;22;20654;-80
2021/07/16 01:12:35;;;;;;;33.33;5.32;;;16.30;99.90;;;;;;6242868;23;20078;-79
2021/07/16 01:15:09;;;;;;;24.55;4.72;;;16.30;99.90;;;;;;6252079;23;20016;-80
2021/07/16 01:17:35;;;;;;;29.48;5.35;;;16.30;99.90;;;;;;6244222;22;20016;-78
2021/07/16 01:20:08;;;;;;;24.92;4.50;;;16.30;99.90;;;;;;6250652;23;20101;-80
2021/07/16 01:22:36;;;;;;;29.30;4.93;;;16.30;99.90;;;;;;6245016;22;20008;-80
2021/07/16 01:25:09;;;;;;;30.58;5.28;;;16.40;99.90;;;;;;6252170;23;20091;-80
2021/07/16 01:27:35;;;;;;;26.63;5.05;;;16.40;99.90;;;;;;6252307;23;20023;-78
2021/07/16 01:30:03;;;;;;;25.95;5.07;;;16.40;99.90;;;;;;6242936;23;20088;-81
2021/07/16 01:32:29;;;;;;;27.35;5.15;;;16.40;99.90;;;;;;6245791;22;20432;-80
2021/07/16 01:34:55;;;;;;;30.02;5.18;;;16.40;99.90;;;;;;6252760;23;20040;-80
2021/07/16 01:37:21;;;;;;;25.75;5.78;;;16.40;99.90;;;;;;6242945;23;20012;-80
2021/07/16 01:39:47;;;;;;;30.10;5.55;;;16.40;99.90;;;;;;6252323;23;20047;-80
2021/07/16 01:42:15;;;;;;;31.38;5.07;;;16.40;99.90;;;;;;6242245;23;20020;-79
2021/07/16 01:44:42;;;;;;;36.00;5.78;;;16.40;99.90;;;;;;6244649;22;20086;-80
2021/07/16 01:47:09;;;;;;;29.00;5.00;;;16.30;99.90;;;;;;6216785;23;20046;-78
2021/07/16 01:49:35;;;;;;;26.23;4.90;;;16.40;99.90;;;;;;6215160;23;20050;-78
2021/07/16 01:52:01;;;;;;;30.45;5.05;;;16.40;99.90;;;;;;6242880;23;20087;-81
2021/07/16 01:54:28;;;;;;;31.85;5.43;;;16.40;99.90;;;;;;6244599;22;20015;-79
2021/07/16 01:56:54;;;;;;;28.52;5.22;;;16.30;99.90;;;;;;6241711;23;20090;-79
2021/07/16 01:59:20;;;;;;;30.70;5.20;;;16.30;99.90;;;;;;6248329;23;20004;-78
2021/07/16 02:01:46;;;;;;;38.28;6.18;;;16.30;99.90;;;;;;6259997;23;20020;-77
2021/07/16 02:04:12;;;;;;;29.98;4.93;;;16.30;99.90;;;;;;6268327;23;20027;-79
2021/07/16 02:06:39;;;;;;;25.98;4.78;;;16.30;99.90;;;;;;6252476;23;20012;-80
2021/07/16 02:09:07;;;;;;;38.15;5.72;;;16.30;99.90;;;;;;6253488;23;20067;-80
2021/07/16 02:11:35;;;;;;;24.30;4.57;;;16.30;99.90;;;;;;6242865;23;20024;-80
2021/07/16 02:14:01;;;;;;;32.53;5.78;;;16.30;99.90;;;;;;6244552;22;20016;-79
2021/07/16 02:16:27;;;;;;;28.35;5.32;;;16.30;99.90;;;;;;6240837;23;20020;-81
2021/07/16 02:18:54;;;;;;;31.23;4.50;;;16.30;99.90;;;;;;6242057;23;20070;-80
2021/07/16 02:21:20;;;;;;;25.48;5.55;;;16.30;99.90;;;;;;6242691;23;20453;-79
2021/07/16 02:23:47;;;;;;;28.70;5.40;;;16.30;99.90;;;;;;6255079;22;20234;-79
2021/07/16 02:26:13;;;;;;;38.92;6.13;;;16.30;99.90;;;;;;6241583;23;20016;-79
2021/07/16 02:28:39;;;;;;;36.80;5.82;;;16.30;99.90;;;;;;6243191;23;20008;-78
2021/07/16 02:31:07;;;;;;;32.58;5.43;;;16.30;99.90;;;;;;6253505;23;20082;-78
2021/07/16 02:33:33;;;;;;;28.55;5.50;;;16.30;99.90;;;;;;6250871;23;20039;-78
2021/07/16 02:35:59;;;;;;;33.65;5.55;;;16.30;99.90;;;;;;6251207;23;20030;-79
2021/07/16 02:38:25;;;;;;;33.45;5.80;;;16.30;99.90;;;;;;6241707;23;20325;-79
2021/07/16 02:40:53;;;;;;;39.28;6.45;;;16.30;99.90;;;;;;6254082;22;20016;-81
2021/07/16 02:43:20;;;;;;;39.83;6.03;;;16.30;99.90;;;;;;6252795;23;20008;-81
2021/07/16 02:45:46;;;;;;;33.45;6.07;;;16.30;99.90;;;;;;6253126;23;20012;-78
2021/07/16 02:48:13;;;;;;;29.70;5.20;;;16.30;99.90;;;;;;6242201;23;20023;-79
2021/07/16 02:50:41;;;;;;;34.83;5.05;;;16.30;99.90;;;;;;6240856;23;20444;-78
2021/07/16 02:53:09;;;;;;;33.58;5.72;;;16.30;99.90;;;;;;6252724;23;20349;-80
2021/07/16 02:55:39;;;;;;;29.17;6.05;;;16.30;99.90;;;;;;6252872;23;20458;-79
2021/07/16 02:58:06;;;;;;;37.72;5.85;;;16.30;99.90;;;;;;6242473;23;20098;-80
2021/07/16 03:00:33;;;;;;;27.08;5.60;;;16.30;99.90;;;;;;6252771;23;20031;-78
2021/07/16 03:02:59;;;;;;;42.92;6.22;;;16.30;99.90;;;;;;6244638;22;20012;-78
2021/07/16 03:05:29;;;;;;;35.50;5.57;;;16.30;99.90;;;;;;6242570;23;20091;-81
2021/07/16 03:07:57;;;;;;;33.58;5.50;;;16.30;99.90;;;;;;6242754;23;20313;-81
2021/07/16 03:10:32;;;;;;;31.58;5.60;;;16.30;99.90;;;;;;6250138;23;20401;-79
2021/07/16 03:13:03;;;;;;;31.55;5.47;;;16.40;99.90;;;;;;6251039;23;20019;-79
2021/07/16 03:15:29;;;;;;;38.70;5.93;;;16.30;99.90;;;;;;6264206;23;20071;-78
2021/07/16 03:17:55;;;;;;;31.02;5.82;;;16.30;99.90;;;;;;6264346;23;20038;-78
2021/07/16 03:20:27;;;;;;;38.22;5.88;;;16.30;99.90;;;;;;6265299;23;20016;-78
2021/07/16 03:22:53;;;;;;;40.22;6.03;;;16.30;99.90;;;;;;6237962;23;20012;-79
2021/07/16 03:25:20;;;;;;;30.23;5.20;;;16.30;99.90;;;;;;6269153;22;20012;-80
2021/07/16 03:27:47;;;;;;;38.38;6.00;;;16.30;99.90;;;;;;6243733;22;20016;-80
2021/07/16 03:30:20;;;;;;;32.92;5.07;;;16.40;99.90;;;;;;6242542;22;20413;-78
2021/07/16 03:32:45;;;;;;;32.25;5.82;;;16.40;99.90;;;;;;6240603;23;20023;-78
2021/07/16 03:35:12;;;;;;;48.88;6.72;;;16.40;99.90;;;;;;6243580;23;20016;-78
2021/07/16 03:37:39;;;;;;;35.83;5.88;;;16.40;99.90;;;;;;6252370;23;20012;-80
2021/07/16 03:40:07;;;;;;;37.30;5.43;;;16.40;99.90;;;;;;6243207;22;20012;-80
2021/07/16 03:42:33;;;;;;;37.65;5.93;;;16.40;99.90;;;;;;6253465;22;20432;-81
2021/07/16 03:44:58;;;;;;;40.97;5.80;;;16.40;99.90;;;;;;6241251;23;20016;-79
2021/07/16 03:47:24;;;;;;;34.75;6.28;;;16.40;99.90;;;;;;6240805;23;20022;-78
2021/07/16 03:49:50;;;;;;;35.97;5.80;;;16.40;99.90;;;;;;6240976;23;20016;-81
2021/07/16 03:52:16;;;;;;;37.10;6.47;;;16.40;99.90;;;;;;6241282;23;20032;-79
2021/07/16 03:54:42;;;;;;;33.13;5.30;;;16.40;99.90;;;;;;6241449;23;20023;-81
2021/07/16 03:57:08;;;;;;;41.20;6.22;;;16.40;99.90;;;;;;6253118;23;20012;-78
2021/07/16 03:59:35;;;;;;;32.28;6.65;;;16.40;99.90;;;;;;6240628;23;20125;-80
2021/07/16 04:02:02;;;;;;;31.33;5.88;;;16.40;99.90;;;;;;6241361;22;20491;-81
2021/07/16 04:04:28;;;;;;;39.25;6.10;;;16.40;99.90;;;;;;6245151;23;20012;-79
2021/07/16 04:06:56;;;;;;;39.63;6.45;;;16.40;99.90;;;;;;6241642;23;20020;-80
2021/07/16 04:09:27;;;;;;;34.80;5.93;;;16.30;99.90;;;;;;6241681;23;20070;-80
2021/07/16 04:12:18;;;;;;;39.85;6.07;;;16.40;99.90;;;;;;6242248;22;20023;-79
2021/07/16 04:14:53;;;;;;;36.90;6.55;;;16.30;99.90;;;;;;6241882;23;20424;-80
2021/07/16 04:17:21;;;;;;;41.28;6.07;;;16.30;99.90;;;;;;6243440;23;20015;-78
2021/07/16 04:19:48;;;;;;;33.22;5.97;;;16.30;99.90;;;;;;6241828;22;20020;-79
2021/07/16 04:22:17;;;;;;;37.67;5.82;;;16.30;99.90;;;;;;6241768;23;20105;-78
2021/07/16 04:24:43;;;;;;;37.55;5.53;;;16.30;99.90;;;;;;6241185;23;20093;-80
2021/07/16 04:27:11;;;;;;;44.40;6.20;;;16.40;99.90;;;;;;6252700;23;20012;-79
2021/07/16 04:29:38;;;;;;;40.53;6.78;;;16.40;99.90;;;;;;6253703;22;20070;-78
2021/07/16 04:32:05;;;;;;;39.78;6.55;;;16.40;99.90;;;;;;6250031;22;20023;-79
2021/07/16 04:34:34;;;;;;;40.70;7.15;;;16.40;99.90;;;;;;6253202;23;20034;-79
2021/07/16 04:37:01;;;;;;;41.53;6.50;;;16.40;99.90;;;;;;6252577;23;20012;-81
2021/07/16 04:39:27;;;;;;;40.42;6.18;;;16.40;99.90;;;;;;6244708;22;20016;-80
2021/07/16 04:41:53;;;;;;;41.88;7.20;;;16.40;99.90;;;;;;6244748;22;20013;-79
2021/07/16 04:44:20;;;;;;;44.72;6.93;;;16.40;99.90;;;;;;6243480;23;20015;-78
2021/07/16 04:46:47;;;;;;;38.22;6.63;;;16.40;99.90;;;;;;6243541;23;20325;-79
2021/07/16 04:49:13;;;;;;;37.67;6.47;;;16.40;99.90;;;;;;6243712;23;20044;-80
2021/07/16 04:51:39;;;;;;;37.35;5.72;;;16.40;99.90;;;;;;6245258;22;20066;-80
2021/07/16 04:54:06;;;;;;;47.67;7.05;;;16.40;99.90;;;;;;6245010;23;20012;-80
2021/07/16 04:56:37;;;;;;;48.78;7.00;;;16.40;99.90;;;;;;6243878;23;20441;-80
2021/07/16 04:59:04;;;;;;;39.75;6.75;;;16.40;99.90;;;;;;6248188;22;20047;-80
2021/07/16 05:01:30;;;;;;;41.05;6.35;;;16.40;99.90;;;;;;6244345;23;20027;-80
2021/07/16 05:03:56;;;;;;;34.15;6.68;;;16.40;99.90;;;;;;6252311;23;20008;-81
2021/07/16 05:06:23;;;;;;;39.15;6.82;;;16.40;99.90;;;;;;6244387;23;20455;-80
2021/07/16 05:08:50;;;;;;;40.67;6.15;;;16.40;99.90;;;;;;6256027;22;20026;-81
2021/07/16 05:11:18;;;;;;;40.58;7.22;;;16.50;99.90;;;;;;6244745;23;20043;-79
2021/07/16 05:13:49;;;;;;;34.90;6.82;;;16.50;99.90;;;;;;6254838;23;20013;-82
2021/07/16 05:16:20;;;;;;;44.13;7.10;;;16.60;99.90;;;;;;6244233;23;20020;-81
2021/07/16 05:18:46;;;;;;;42.55;6.53;;;16.60;99.90;;;;;;6246056;23;20158;-80
2021/07/16 05:21:12;;;;;;;33.78;6.00;;;16.60;99.90;;;;;;6245741;22;20012;-80
2021/07/16 05:23:39;;;;;;;38.55;6.65;;;16.70;99.90;;;;;;6244198;23;20027;-80
2021/07/16 05:26:05;;;;;;;47.08;6.68;;;16.70;99.90;;;;;;6256512;22;20095;-81
2021/07/16 05:28:31;;;;;;;40.50;6.25;;;16.70;99.90;;;;;;6254914;23;20039;-80
2021/07/16 05:30:57;;;;;;;44.58;6.78;;;16.70;99.90;;;;;;6244123;23;20016;-79
2021/07/16 05:33:23;;;;;;;45.72;7.28;;;16.70;99.90;;;;;;6242526;23;20022;-80
2021/07/16 05:35:50;;;;;;;44.05;6.78;;;16.80;99.90;;;;;;6255957;22;20016;-79
2021/07/16 05:38:15;;;;;;;29.30;5.82;;;16.70;99.90;;;;;;6253767;23;20016;-78
2021/07/16 05:40:42;;;;;;;39.75;7.38;;;16.80;99.90;;;;;;6243086;23;20095;-80
2021/07/16 05:43:12;;;;;;;39.08;6.50;;;16.70;99.90;;;;;;6243114;23;20034;-80
2021/07/16 05:45:39;;;;;;;39.45;6.82;;;16.80;99.90;;;;;;6254778;22;20015;-81
2021/07/16 05:48:09;;;;;;;33.08;6.03;;;16.80;99.90;;;;;;6246036;23;20012;-82
2021/07/16 05:50:36;;;;;;;45.42;7.13;;;16.70;99.90;;;;;;6254107;23;20091;-80
2021/07/16 05:53:04;;;;;;;45.00;6.70;;;16.80;99.90;;;;;;6244514;22;20012;-80
2021/07/16 05:55:31;;;;;;;41.42;6.40;;;16.80;99.90;;;;;;6244259;22;20027;-79
2021/07/16 05:57:57;;;;;;;34.13;5.57;;;16.80;99.90;;;;;;6242425;23;20038;-80
2021/07/16 06:00:22;;;;;;;33.90;5.85;;;16.80;99.90;;;;;;6254646;23;20043;-79
2021/07/16 06:02:48;;;;;;;34.58;6.03;;;16.80;99.90;;;;;;6248300;23;20016;-78
2021/07/16 06:05:14;;;;;;;44.20;6.68;;;16.90;99.90;;;;;;6244747;23;20016;-77
2021/07/16 06:07:40;;;;;;;43.78;7.00;;;16.80;99.90;;;;;;6254297;23;20015;-79
2021/07/16 06:10:07;;;;;;;41.50;6.75;;;16.90;99.90;;;;;;6245295;22;20066;-78
2021/07/16 06:12:35;;;;;;;42.78;6.22;;;16.90;99.90;;;;;;6255399;23;20035;-78
2021/07/16 06:15:00;;;;;;;41.50;6.55;;;16.90;99.90;;;;;;6255524;22;20470;-79
2021/07/16 06:17:31;;;;;;;38.90;6.75;;;16.90;99.90;;;;;;6248581;23;20112;-77
2021/07/16 06:19:56;;;;;;;39.97;6.22;;;16.90;99.90;;;;;;6252983;23;20221;-80
2021/07/16 06:22:22;;;;;;;60.47;9.48;;;16.90;99.90;;;;;;6241880;23;20024;-80
2021/07/16 06:24:48;;;;;;;40.20;7.10;;;16.90;99.90;;;;;;6242517;23;20039;-81
2021/07/16 06:27:13;;;;;;;44.13;7.03;;;16.90;99.90;;;;;;6252827;23;20015;-80
2021/07/16 06:29:39;;;;;;;41.42;6.75;;;17.00;99.90;;;;;;6242737;23;20344;-81
2021/07/16 06:32:06;;;;;;;32.90;5.80;;;17.00;99.90;;;;;;6250422;23;20023;-80
2021/07/16 06:34:31;;;;;;;45.95;7.55;;;17.00;99.90;;;;;;6253487;23;20031;-78
2021/07/16 06:36:57;;;;;;;54.47;7.20;;;17.10;99.90;;;;;;6255108;23;20428;-84
2021/07/16 06:39:23;;;;;;;43.83;7.13;;;17.10;99.90;;;;;;6243271;23;20012;-81
2021/07/16 06:41:49;;;;;;;56.90;8.80;;;17.10;99.90;;;;;;6253189;23;20038;-83
2021/07/16 06:44:16;;;;;;;45.25;6.95;;;17.20;99.90;;;;;;6243186;23;20095;-84
2021/07/16 06:47:19;;;;;;;45.78;7.22;;;17.30;99.90;;;;;;6216447;23;20328;-82
2021/07/16 06:49:46;;;;;;;32.15;6.40;;;17.30;99.90;;;;;;6242965;23;20008;-81
2021/07/16 06:52:13;;;;;;;34.63;6.57;;;17.30;99.90;;;;;;6242334;23;20046;-82
2021/07/16 06:54:39;;;;;;;42.47;6.68;;;17.30;99.90;;;;;;6217601;23;20444;-80
2021/07/16 06:57:05;;;;;;;45.20;7.72;;;17.40;99.90;;;;;;6256293;22;20082;-79
2021/07/16 06:59:31;;;;;;;35.72;6.18;;;17.30;99.90;;;;;;6248799;22;20020;-82
2021/07/16 07:01:57;;;;;;;43.33;6.95;;;17.40;99.90;;;;;;6245207;22;20099;-81
2021/07/16 07:04:23;;;;;;;42.25;7.13;;;17.50;99.90;;;;;;6250307;23;20352;-79
2021/07/16 07:06:50;;;;;;;42.33;7.38;;;17.50;99.90;;;;;;6246509;22;20008;-80
2021/07/16 07:09:17;;;;;;;46.67;7.13;;;17.50;99.90;;;;;;6242679;23;20091;-82
2021/07/16 07:11:43;;;;;;;39.08;6.65;;;17.50;99.90;;;;;;6245143;22;20023;-80
2021/07/16 07:14:09;;;;;;;37.83;6.65;;;17.50;99.90;;;;;;6242920;23;20012;-80
2021/07/16 07:16:36;;;;;;;35.40;6.93;;;17.60;99.90;;;;;;6252114;23;20112;-84
2021/07/16 07:19:02;;;;;;;34.40;5.63;;;17.50;99.90;;;;;;6246189;23;20012;-82
2021/07/16 07:21:28;;;;;;;35.00;6.63;;;17.50;99.90;;;;;;6246049;22;20011;-83
2021/07/16 07:23:54;;;;;;;43.47;6.97;;;17.50;99.90;;;;;;6243156;23;20016;-80
2021/07/16 07:26:20;;;;;;;36.40;6.43;;;17.50;99.90;;;;;;6242317;23;20020;-78
2021/07/16 07:28:46;;;;;;;40.40;6.32;;;17.70;99.90;;;;;;6243093;23;20019;-81
2021/07/16 07:31:12;;;;;;;32.30;5.97;;;17.80;99.90;;;;;;6253366;23;20008;-78
2021/07/16 07:33:37;;;;;;;39.60;6.68;;;17.90;99.90;;;;;;6244862;23;20437;-78
2021/07/16 07:36:03;;;;;;;37.10;6.57;;;17.90;99.90;;;;;;6252641;23;20050;-78
2021/07/16 07:38:32;;;;;;;42.70;6.25;;;17.90;99.90;;;;;;6216230;23;20023;-77
2021/07/16 07:40:58;;;;;;;40.22;7.10;;;17.80;99.90;;;;;;6253969;22;20016;-80
2021/07/16 07:43:24;;;;;;;42.80;7.35;;;17.70;99.90;;;;;;6241459;23;20031;-77
2021/07/16 07:45:50;;;;;;;41.13;7.05;;;17.70;99.90;;;;;;6241597;23;20020;-80
2021/07/16 07:48:16;;;;;;;33.67;6.50;;;17.70;99.90;;;;;;6216234;23;20062;-79
2021/07/16 07:50:42;;;;;;;42.13;7.05;;;17.70;99.90;;;;;;6242403;23;20019;-78
2021/07/16 07:53:07;;;;;;;40.83;7.25;;;17.80;99.90;;;;;;6242184;23;20086;-78
2021/07/16 07:55:33;;;;;;;44.60;7.20;;;17.90;99.90;;;;;;6244233;23;20061;-78
2021/07/16 07:57:59;;;;;;;36.38;6.70;;;18.00;99.90;;;;;;6244065;23;20019;-77
2021/07/16 08:00:26;;;;;;;45.08;7.50;;;18.00;99.90;;;;;;6217288;23;20065;-79
2021/07/16 08:02:52;;;;;;;40.80;7.50;;;17.90;99.90;;;;;;6240651;23;20074;-81
2021/07/16 08:05:19;;;;;;;43.10;7.40;;;17.90;99.90;;;;;;6244687;22;20013;-79
2021/07/16 08:07:45;;;;;;;44.97;7.22;;;17.90;99.90;;;;;;6244975;22;20012;-79
2021/07/16 08:10:13;;;;;;;38.75;6.50;;;17.80;99.90;;;;;;6254049;23;20023;-79
2021/07/16 08:12:40;;;;;;;42.13;7.43;;;17.90;99.90;;;;;;6255599;22;20099;-79
2021/07/16 08:15:08;;;;;;;35.58;6.00;;;17.80;99.90;;;;;;6255618;23;20308;-80
2021/07/16 08:17:34;;;;;;;37.55;7.40;;;17.80;99.90;;;;;;6254983;22;20012;-80
2021/07/16 08:20:00;;;;;;;35.78;7.38;;;17.90;99.90;;;;;;6249645;22;20016;-77
2021/07/16 08:22:26;;;;;;;41.80;7.00;;;17.90;99.90;;;;;;6246733;23;20020;-79
2021/07/16 08:24:51;;;;;;;40.05;6.72;;;17.90;99.90;;;;;;6247175;23;20008;-78
2021/07/16 08:27:17;;;;;;;37.03;6.78;;;17.90;99.90;;;;;;6246258;23;20016;-78
2021/07/16 08:29:43;;;;;;;39.38;6.38;;;17.90;99.90;;;;;;6257205;23;20016;-80
2021/07/16 08:32:09;;;;;;;41.70;6.60;;;17.80;99.90;;;;;;6243320;23;20016;-81
2021/07/16 08:34:35;;;;;;;35.88;7.30;;;17.90;99.90;;;;;;6243472;23;20095;-76
2021/07/16 08:37:01;;;;;;;39.38;6.95;;;17.90;99.90;;;;;;6246665;23;20012;-78
2021/07/16 08:39:27;;;;;;;45.08;7.38;;;17.90;99.90;;;;;;6246316;22;20551;-76
2021/07/16 08:41:53;;;;;;;45.70;7.15;;;17.90;99.90;;;;;;6243331;23;20018;-77
2021/07/16 08:44:19;;;;;;;44.42;6.90;;;18.00;99.90;;;;;;6246396;22;20332;-78
2021/07/16 08:46:46;;;;;;;43.38;7.57;;;18.00;99.90;;;;;;6243672;23;20462;-77
2021/07/16 08:49:13;;;;;;;39.80;7.18;;;17.90;99.90;;;;;;6244389;23;20012;-81
2021/07/16 08:51:41;;;;;;;38.95;6.50;;;18.10;99.90;;;;;;6256004;22;20062;-84
2021/07/16 08:54:10;;;;;;;45.03;6.43;;;18.00;99.90;;;;;;6254367;23;20018;-79
2021/07/16 08:56:37;;;;;;;36.35;6.85;;;18.00;99.90;;;;;;6244768;23;20008;-78
2021/07/16 08:59:08;;;;;;;43.55;6.68;;;18.10;99.90;;;;;;6252739;22;20067;-80
2021/07/16 09:01:35;;;;;;;36.83;7.13;;;18.20;99.90;;;;;;6244324;23;20111;-80
2021/07/16 09:04:06;;;;;;;32.28;6.18;;;18.30;99.90;;;;;;6219572;23;20020;-81
2021/07/16 09:06:55;;;;;;;33.53;6.70;;;18.40;99.90;;;;;;6246799;22;20086;-82
2021/07/16 09:09:24;;;;;;;38.40;7.10;;;18.30;99.90;;;;;;6256813;22;20027;-82
2021/07/16 09:11:52;;;;;;;37.40;6.80;;;18.30;99.90;;;;;;6219812;23;20065;-82
2021/07/16 09:14:20;;;;;;;44.22;7.10;;;18.30;99.90;;;;;;6244794;23;20361;-82
2021/07/16 09:17:10;;;;;;;47.80;7.13;;;18.40;99.90;;;;;;6255843;22;20040;-84
2021/07/16 09:19:45;;;;;;;39.75;7.13;;;18.50;99.90;;;;;;6244198;23;20384;-81
2021/07/16 09:22:16;;;;;;;35.45;6.22;;;18.50;99.90;;;;;;6244931;23;20044;-83
2021/07/16 09:24:49;;;;;;;43.47;7.25;;;18.60;99.90;;;;;;6247116;22;20008;-82
2021/07/16 09:27:30;;;;;;;37.28;6.70;;;18.70;99.90;;;;;;6255593;23;20034;-81
2021/07/16 09:30:24;;;;;;;35.67;6.82;;;18.80;99.90;;;;;;6245044;23;20073;-82
2021/07/16 09:33:00;;;;;;;40.22;7.70;;;18.80;99.90;;;;;;6204505;23;20012;-83
2021/07/16 09:35:27;;;;;;;33.15;7.03;;;18.90;99.90;;;;;;6244784;23;20016;-84
2021/07/16 09:37:57;;;;;;;37.35;7.03;;;18.80;99.90;;;;;;6219221;23;20008;-82
2021/07/16 09:40:41;;;;;;;41.92;7.22;;;18.80;99.90;;;;;;6256822;22;20012;-83
2021/07/16 09:43:19;;;;;;;36.55;6.80;;;18.90;99.90;;;;;;6244388;23;20027;-84
2021/07/16 09:46:01;;;;;;;35.78;7.47;;;18.80;99.90;;;;;;6244992;23;20016;-84
2021/07/16 09:48:35;;;;;;;40.05;7.00;;;18.90;99.90;;;;;;6246859;22;20082;-81
2021/07/16 09:51:27;;;;;;;39.67;6.90;;;18.90;99.90;;;;;;6257015;22;20016;-82
2021/07/16 09:54:00;;;;;;;34.28;7.38;;;19.00;99.90;;;;;;6244261;23;20012;-81
2021/07/16 09:56:28;;;;;;;35.70;7.15;;;19.00;99.90;;;;;;6245886;22;20333;-81
2021/07/16 09:59:07;;;;;;;37.95;7.22;;;19.10;99.90;;;;;;6252863;22;20020;-81
2021/07/16 10:01:38;;;;;;;38.60;7.18;;;19.10;99.90;;;;;;6251837;23;20165;-80
2021/07/16 10:04:20;;;;;;;34.88;6.75;;;19.00;99.90;;;;;;6242547;23;20020;-84
2021/07/16 10:06:48;;;;;;;35.35;6.88;;;19.00;99.90;;;;;;6243268;23;20012;-82
2021/07/16 10:09:18;;;;;;;37.38;7.40;;;19.00;99.90;;;;;;6254001;23;20019;-85
2021/07/16 10:11:57;;;;;;;37.75;6.70;;;19.00;99.90;;;;;;6217296;23;20016;-82
2021/07/16 10:14:24;;;;;;;32.08;6.40;;;19.00;99.90;;;;;;6252812;23;20429;-82
2021/07/16 10:16:52;;;;;;;43.55;7.68;;;19.00;99.90;;;;;;6242930;23;20040;-84
2021/07/16 10:19:18;;;;;;;37.15;7.63;;;19.10;99.90;;;;;;6254142;23;20012;-81
2021/07/16 10:21:46;;;;;;;36.95;7.28;;;19.10;99.90;;;;;;6244646;22;20016;-82
2021/07/16 10:24:13;;;;;;;40.38;6.65;;;19.00;99.90;;;;;;6243255;23;20013;-83
2021/07/16 10:26:40;;;;;;;32.20;6.85;;;19.20;99.90;;;;;;6244285;22;20014;-82
2021/07/16 10:29:38;;;;;;;37.85;6.75;;;19.30;99.90;;;;;;6243827;23;20032;-80
2021/07/16 10:32:08;;;;;;;42.53;7.68;;;19.20;99.90;;;;;;6242504;23;20016;-79
2021/07/16 10:34:37;;;;;;;32.35;6.75;;;19.20;99.90;;;;;;6246577;23;20455;-81
2021/07/16 10:37:10;;;;;;;42.53;7.88;;;19.10;99.90;;;;;;6245239;22;20012;-83
2021/07/16 10:39:54;;;;;;;36.50;7.85;;;19.10;99.90;;;;;;6219162;23;20087;-82
2021/07/16 10:42:27;;;;;;;36.53;6.85;;;19.10;99.90;;;;;;6254094;23;20070;-81
2021/07/16 10:44:58;;;;;;;40.08;7.70;;;19.10;99.90;;;;;;6246065;22;20012;-81
2021/07/16 10:47:34;;;;;;;35.22;7.38;;;19.10;99.90;;;;;;6242084;23;20015;-81
2021/07/16 10:50:01;;;;;;;37.15;6.90;;;19.10;99.90;;;;;;6244068;23;20062;-82
2021/07/16 10:52:45;;;;;;;41.10;8.25;;;19.00;99.90;;;;;;6253071;23;20028;-81
2021/07/16 10:55:19;;;;;;;39.85;7.43;;;19.10;99.90;;;;;;6254894;22;20008;-81
2021/07/16 10:57:48;;;;;;;39.67;7.07;;;19.20;99.90;;;;;;6254909;22;20008;-80
2021/07/16 11:00:36;;;;;;;38.47;7.43;;;19.20;99.90;;;;;;6242038;23;20028;-82
2021/07/16 11:03:09;;;;;;;32.67;7.07;;;19.20;99.90;;;;;;6242947;23;20439;-84
2021/07/16 11:05:38;;;;;;;38.30;7.68;;;19.30;99.90;;;;;;6218085;23;20019;-79
2021/07/16 11:08:06;;;;;;;35.20;7.13;;;19.20;99.90;;;;;;6242323;23;20286;-83
2021/07/16 11:10:50;;;;;;;38.53;6.70;;;19.20;99.90;;;;;;6217699;23;20030;-79
2021/07/16 11:13:35;;;;;;;36.95;7.65;;;19.40;99.90;;;;;;6243072;23;20016;-80
2021/07/16 11:16:27;;;;;;;;;;;19.40;99.90;;;;;;6242862;23;20024;-79
2021/07/16 11:19:17;;;;;;;40.85;7.38;;;19.50;99.90;;;;;;6244211;22;20283;-77
2021/07/16 11:21:45;;;;;;;30.48;7.00;;;19.60;99.90;;;;;;6241954;23;20432;-78
2021/07/16 11:24:20;;;;;;;31.70;7.05;;;19.60;99.90;;;;;;6254053;22;20014;-77
2021/07/16 11:26:46;;;;;;;;;;;19.70;99.90;;;;;;6242530;23;20048;-77
2021/07/16 11:29:13;;;;;;;42.55;7.97;;;19.80;99.90;;;;;;6242413;23;20293;-79
2021/07/16 11:31:39;;;;;;;36.97;8.25;;;19.80;99.90;;;;;;6251910;23;20024;-78
2021/07/16 11:34:09;;;;;;;35.88;7.72;;;19.80;99.90;;;;;;6242141;23;20012;-77
2021/07/16 11:36:36;;;;;;;35.78;7.28;;;19.90;99.90;;;;;;6253872;22;20027;-82
2021/07/16 11:39:02;;;;;;;43.85;7.90;;;20.00;99.90;;;;;;6192541;23;20349;-80
2021/07/16 11:41:32;;;;;;;39.85;7.82;;;20.10;99.90;;;;;;6244506;22;20070;-81
2021/07/16 11:43:59;;;;;;;37.20;6.97;;;20.20;99.90;;;;;;6255163;22;20012;-82
2021/07/16 11:46:29;;;;;;;37.40;7.68;;;20.30;99.90;;;;;;6242637;23;20016;-83
2021/07/16 11:48:55;;;;;;;36.67;6.90;;;20.20;99.90;;;;;;6248606;23;20008;-81
2021/07/16 11:51:28;;;;;;;30.00;7.32;;;20.10;99.90;;;;;;6245914;23;20345;-80
2021/07/16 11:53:54;;;;;;;39.92;6.18;;;20.30;99.90;;;;;;6254426;22;20012;-80
2021/07/16 11:56:20;;;;;;;35.53;7.55;;;20.30;99.90;;;;;;6264828;22;20054;-81
2021/07/16 11:58:52;;;;;;;37.28;8.13;;;20.30;99.90;;;;;;6265760;22;20024;-78
2021/07/16 12:01:19;;;;;;;42.50;8.02;;;20.20;99.90;;;;;;6263521;23;20074;-78
2021/07/16 12:03:45;;;;;;;30.20;7.10;;;20.40;99.90;;;;;;6270195;23;20019;-80
2021/07/16 12:06:10;;;;;;;38.65;7.75;;;20.50;99.90;;;;;;6265595;23;20016;-78
2021/07/16 12:08:39;;;;;;;40.03;7.72;;;20.40;99.90;;;;;;6255877;23;20008;-80
2021/07/16 12:11:06;;;;;;;32.05;7.03;;;20.40;99.90;;;;;;6243683;23;20020;-79
2021/07/16 12:13:32;;;;;;;39.50;6.72;;;20.60;99.90;;;;;;6256491;23;20008;-78
2021/07/16 12:16:06;;;;;;;34.25;6.85;;;20.80;99.90;;;;;;6256752;22;20090;-79
2021/07/16 12:18:33;;;;;;;29.60;6.47;;;20.80;99.90;;;;;;6245484;22;20020;-78
2021/07/16 12:21:13;;;;;;;33.55;6.63;;;20.70;99.90;;;;;;6256782;22;20012;-81
2021/07/16 12:23:41;;;;;;;38.70;8.32;;;20.60;99.90;;;;;;6255718;23;20652;-81
2021/07/16 12:26:18;;;;;;;29.95;6.47;;;20.60;99.90;;;;;;6257572;22;20031;-83
2021/07/16 12:28:45;;;;;;;38.08;8.23;;;20.60;99.90;;;;;;6257238;22;20111;-83
2021/07/16 12:31:12;;;;;;;36.95;7.90;;;20.70;99.90;;;;;;6243986;23;20083;-82
2021/07/16 12:33:41;;;;;;;35.35;7.50;;;20.70;99.90;;;;;;6250741;22;20023;-80
2021/07/16 12:36:20;;;;;;;41.03;7.72;;;20.60;99.90;;;;;;6244058;23;20024;-80
2021/07/16 12:38:46;;;;;;;35.58;8.15;;;20.50;99.90;;;;;;6255954;23;20058;-80
2021/07/16 12:41:12;;;;;;;30.90;7.35;;;20.70;99.90;;;;;;6244819;23;20019;-80
2021/07/16 12:43:45;;;;;;;37.45;7.50;;;20.80;99.90;;;;;;6244006;23;20432;-80
2021/07/16 12:46:11;;;;;;;32.85;7.65;;;20.80;99.90;;;;;;6244046;23;20027;-81